Time;durP1;ratioP1;P1;durP2;ratioP2;P2;SDS_P1;SDS_P2;PMS_P1;PMS_P2;Temp;Humidity;BMP_temperature;BMP_pressure;BME280_temperature;BME280_humidity;BME280_pressure;Samples;Min_cycle;Max_cycle;Signal;HPM_P1;HPM_P2
2023/06/11 00:01:14;;;;;;;2.53;2.05;;;18.20;49.10;18.20;100871.00;;;;4984885;27;123007;-70
2023/06/11 00:03:46;;;;;;;2.15;1.58;;;18.20;49.20;18.20;100878.00;;;;4988858;27;92814;-70
2023/06/11 00:06:17;;;;;;;2.35;1.55;;;18.10;49.20;18.10;100870.00;;;;4979226;27;92967;-70
2023/06/11 00:08:45;;;;;;;1.83;1.70;;;18.00;49.40;18.00;100874.00;;;;4987326;27;94074;-71
2023/06/11 00:11:11;;;;;;;2.38;1.80;;;17.90;49.50;17.90;100875.00;;;;4993951;27;110759;-71
2023/06/11 00:13:36;;;;;;;2.13;1.52;;;17.90;49.60;17.80;100877.00;;;;4990114;27;97067;-70
2023/06/11 00:16:02;;;;;;;2.65;1.52;;;17.80;49.70;17.80;100872.00;;;;4986768;27;93007;-70
2023/06/11 00:18:28;;;;;;;1.38;1.20;;;17.70;49.80;17.70;100875.00;;;;4983151;27;122730;-69
2023/06/11 00:20:56;;;;;;;3.38;2.08;;;17.60;49.90;17.60;100874.00;;;;4985995;27;122831;-69
2023/06/11 00:23:22;;;;;;;2.30;1.83;;;17.60;50.70;17.60;100872.00;;;;4987191;27;93104;-70
2023/06/11 00:25:54;;;;;;;2.83;1.77;;;17.50;50.30;17.50;100870.00;;;;4984275;27;99363;-69
2023/06/11 00:28:20;;;;;;;1.63;1.27;;;17.40;50.40;17.40;100868.00;;;;4984119;27;93369;-69
2023/06/11 00:30:45;;;;;;;1.50;1.40;;;17.40;50.70;17.40;100870.00;;;;4986164;27;93720;-68
2023/06/11 00:33:11;;;;;;;3.15;1.73;;;17.30;51.00;17.30;100870.00;;;;4986534;27;111220;-70
2023/06/11 00:35:37;;;;;;;4.47;2.53;;;17.30;51.30;17.20;100877.00;;;;4990145;27;100942;-70
2023/06/11 00:38:03;;;;;;;3.47;2.10;;;17.20;51.60;17.10;100872.00;;;;4987770;27;116016;-69
2023/06/11 00:40:31;;;;;;;2.25;1.52;;;17.10;51.70;17.10;100881.00;;;;4984111;27;120895;-69
2023/06/11 00:42:57;;;;;;;3.03;1.80;;;17.00;51.90;17.00;100880.00;;;;4987281;27;109170;-69
2023/06/11 00:45:24;;;;;;;2.03;1.60;;;17.00;52.20;16.90;100876.00;;;;4984827;27;93141;-68
2023/06/11 00:47:50;;;;;;;2.92;1.25;;;16.90;52.50;16.80;100875.00;;;;4989465;27;94073;-68
2023/06/11 00:50:48;;;;;;;2.80;1.40;;;16.80;52.90;16.70;100877.00;;;;4986380;27;93686;-67
2023/06/11 00:53:15;;;;;;;2.70;2.30;;;16.70;53.30;16.60;100885.00;;;;4986989;27;92915;-68
2023/06/11 00:55:40;;;;;;;2.28;2.10;;;16.60;53.70;16.50;100882.00;;;;4991022;27;92803;-68
2023/06/11 00:58:13;;;;;;;3.65;1.73;;;16.50;54.20;16.40;100880.00;;;;4987497;27;93051;-68
2023/06/11 01:00:52;;;;;;;1.55;1.45;;;16.40;54.60;16.30;100882.00;;;;4991158;27;92940;-68
2023/06/11 01:03:21;;;;;;;2.05;1.92;;;16.30;55.00;16.20;100881.00;;;;5002936;27;93259;-68
2023/06/11 01:05:54;;;;;;;3.42;2.45;;;16.20;55.30;16.10;100883.00;;;;4968767;27;93160;-68
2023/06/11 01:08:22;;;;;;;1.80;1.65;;;16.10;55.60;16.00;100884.00;;;;5001503;27;94670;-68
2023/06/11 01:10:49;;;;;;;6.18;2.10;;;16.00;56.00;15.90;100887.00;;;;4972035;27;93794;-68
2023/06/11 01:13:15;;;;;;;2.22;1.98;;;15.90;56.30;15.80;100878.00;;;;4986351;27;93180;-68
2023/06/11 01:15:40;;;;;;;3.65;1.67;;;15.80;56.60;15.70;100888.00;;;;4989840;27;92980;-68
2023/06/11 01:18:18;;;;;;;1.67;1.55;;;15.80;56.90;15.60;100885.00;;;;4970329;28;93451;-68
2023/06/11 01:20:51;;;;;;;4.40;2.38;;;15.70;57.30;15.60;100876.00;;;;4985793;27;93065;-68
2023/06/11 01:23:41;;;;;;;3.47;1.83;;;15.60;57.60;15.50;100877.00;;;;4987583;27;92963;-68
2023/06/11 01:26:09;;;;;;;2.25;1.67;;;15.50;57.80;15.40;100875.00;;;;4985392;27;92446;-68
2023/06/11 01:28:37;;;;;;;4.20;3.35;;;15.40;57.90;15.30;100885.00;;;;4988469;27;93676;-68
2023/06/11 01:31:11;;;;;;;6.07;3.15;;;15.40;58.50;15.20;100887.00;;;;4986301;27;93350;-68
2023/06/11 01:33:37;;;;;;;3.78;2.95;;;15.30;58.70;15.10;100892.00;;;;4973515;27;101858;-69
2023/06/11 01:36:05;;;;;;;2.80;2.28;;;15.10;58.70;15.00;100887.00;;;;4967083;28;105612;-68
2023/06/11 01:38:41;;;;;;;2.58;2.38;;;15.00;59.00;14.90;100881.00;;;;4991264;27;93053;-68
2023/06/11 01:41:09;;;;;;;15.05;2.67;;;15.00;59.30;14.80;100888.00;;;;4987801;27;93952;-69
2023/06/11 01:43:35;;;;;;;3.65;1.70;;;14.90;59.60;14.80;100898.00;;;;4988847;27;93573;-70
2023/06/11 01:46:03;;;;;;;2.85;1.95;;;14.80;59.80;14.70;100881.00;;;;4985303;27;92824;-68
2023/06/11 01:48:29;;;;;;;4.32;2.22;;;14.70;60.10;14.60;100889.00;;;;4987518;27;116429;-68
2023/06/11 01:50:54;;;;;;;6.23;2.23;;;14.70;60.50;14.60;100899.00;;;;4982455;27;117980;-69
2023/06/11 01:53:20;;;;;;;2.37;2.00;;;14.60;60.80;14.50;100901.00;;;;4991423;27;92766;-68
2023/06/11 01:55:46;;;;;;;4.60;3.10;;;14.50;61.10;14.50;100893.00;;;;4991605;27;92932;-68
2023/06/11 01:58:12;;;;;;;2.92;2.58;;;14.50;61.60;14.40;100897.00;;;;4985744;27;123019;-68
2023/06/11 02:00:37;;;;;;;3.00;2.20;;;14.40;61.90;14.40;100902.00;;;;4989276;27;93903;-69
2023/06/11 02:03:05;;;;;;;2.87;2.37;;;14.40;62.10;14.30;100903.00;;;;4986146;27;110487;-68
2023/06/11 02:05:31;;;;;;;4.37;2.50;;;14.30;62.10;14.30;100904.00;;;;4987092;27;94162;-68
2023/06/11 02:07:57;;;;;;;2.30;1.90;;;14.30;62.10;14.30;100903.00;;;;4987231;27;94155;-69
2023/06/11 02:10:22;;;;;;;2.97;2.10;;;14.30;62.10;14.20;100897.00;;;;4965459;28;122874;-68
2023/06/11 02:12:48;;;;;;;2.37;2.07;;;14.20;62.00;14.20;100901.00;;;;4986691;27;110388;-69
2023/06/11 02:15:14;;;;;;;3.03;1.97;;;14.20;62.00;14.20;100900.00;;;;4983565;27;109397;-69
2023/06/11 02:17:40;;;;;;;5.33;2.00;;;14.20;62.10;14.20;100904.00;;;;4988931;27;93179;-69
2023/06/11 02:20:07;;;;;;;2.47;1.80;;;14.20;62.30;14.10;100911.00;;;;4974384;28;92776;-69
2023/06/11 02:22:34;;;;;;;5.73;1.70;;;14.10;62.40;14.10;100897.00;;;;4984956;27;96734;-68
2023/06/11 02:25:00;;;;;;;1.60;1.50;;;14.10;62.60;14.10;100900.00;;;;4989210;27;93235;-68
2023/06/11 02:27:26;;;;;;;2.73;1.90;;;14.00;62.80;14.00;100898.00;;;;4987517;27;93669;-68
2023/06/11 02:29:51;;;;;;;3.93;2.60;;;14.00;62.90;14.00;100899.00;;;;4986651;27;121723;-67
2023/06/11 02:32:17;;;;;;;2.83;1.63;;;14.00;63.00;14.00;100904.00;;;;4987435;27;109863;-68
2023/06/11 02:34:43;;;;;;;3.67;1.87;;;14.00;63.20;13.90;100897.00;;;;4988057;27;108176;-69
2023/06/11 02:37:08;;;;;;;5.00;2.47;;;13.90;63.10;13.90;100904.00;;;;4984178;27;122619;-67
2023/06/11 02:39:34;;;;;;;3.70;1.57;;;13.80;63.30;13.90;100910.00;;;;4988692;27;107574;-68
2023/06/11 02:42:00;;;;;;;2.00;1.50;;;13.90;63.60;13.80;100902.00;;;;4984398;27;92983;-69
2023/06/11 02:44:26;;;;;;;1.50;1.40;;;13.80;63.60;13.80;100905.00;;;;4984553;27;110219;-69
2023/06/11 02:46:51;;;;;;;4.00;1.73;;;13.80;63.80;13.80;100906.00;;;;4987798;27;94036;-68
2023/06/11 02:49:17;;;;;;;1.83;1.17;;;13.80;63.80;13.80;100909.00;;;;4985158;27;123435;-69
2023/06/11 02:51:42;;;;;;;3.60;1.07;;;13.80;64.10;13.80;100903.00;;;;4986723;27;110392;-69
2023/06/11 02:54:08;;;;;;;2.07;1.50;;;13.80;64.30;13.80;100909.00;;;;4970926;28;108265;-69
2023/06/11 02:56:34;;;;;;;1.53;1.43;;;13.80;64.50;13.80;100910.00;;;;4986224;28;92999;-69
2023/06/11 02:58:59;;;;;;;2.70;1.57;;;13.80;64.70;13.80;100911.00;;;;4983945;27;121903;-69
2023/06/11 03:01:25;;;;;;;1.70;1.60;;;13.80;64.80;13.80;100911.00;;;;4988174;27;110244;-68
2023/06/11 03:03:51;;;;;;;2.80;2.53;;;13.80;65.00;13.80;100912.00;;;;4992391;27;103525;-68
2023/06/11 03:06:16;;;;;;;1.97;1.67;;;13.80;65.20;13.80;100916.00;;;;4984976;27;122733;-68
2023/06/11 03:08:42;;;;;;;6.47;2.30;;;13.80;65.40;13.80;100924.00;;;;4988383;27;120625;-69
2023/06/11 03:11:08;;;;;;;1.40;1.30;;;13.80;65.50;13.80;100914.00;;;;4987207;28;94085;-68
2023/06/11 03:13:34;;;;;;;3.03;1.90;;;13.80;65.60;13.80;100920.00;;;;4988529;28;101932;-68
2023/06/11 03:15:59;;;;;;;2.10;1.83;;;13.80;65.80;13.90;100916.00;;;;4990575;27;123678;-68
2023/06/11 03:18:25;;;;;;;4.27;2.47;;;13.80;65.90;13.90;100917.00;;;;4989336;27;124393;-69
2023/06/11 03:20:50;;;;;;;1.60;1.33;;;13.80;66.10;13.90;100908.00;;;;4987677;27;107230;-68
2023/06/11 03:23:16;;;;;;;1.37;1.27;;;13.90;66.30;13.90;100919.00;;;;4988578;27;108393;-67
2023/06/11 03:25:43;;;;;;;2.67;1.77;;;13.90;66.40;13.90;100918.00;;;;4987223;27;123890;-69
2023/06/11 03:28:09;;;;;;;3.13;1.50;;;13.90;66.60;13.90;100916.00;;;;4989471;27;92861;-67
2023/06/11 03:30:34;;;;;;;3.07;1.73;;;13.90;66.80;13.90;100918.00;;;;4985440;27;93038;-68
2023/06/11 03:33:00;;;;;;;2.77;1.47;;;13.90;66.90;14.00;100926.00;;;;4988009;27;107384;-67
2023/06/11 03:35:26;;;;;;;1.73;1.43;;;13.90;66.90;14.00;100916.00;;;;4991076;27;95074;-68
2023/06/11 03:37:51;;;;;;;3.17;2.23;;;13.90;67.00;13.90;100919.00;;;;4988438;27;121871;-68
2023/06/11 03:40:18;;;;;;;1.93;1.37;;;13.90;67.10;13.90;100915.00;;;;4990807;27;93029;-68
2023/06/11 03:42:43;;;;;;;2.40;1.60;;;13.90;67.30;14.00;100918.00;;;;4990150;27;109214;-69
2023/06/11 03:45:09;;;;;;;1.73;1.53;;;14.00;67.60;14.00;100907.00;;;;4990367;27;122712;-69
2023/06/11 03:47:35;;;;;;;3.07;1.47;;;13.90;67.60;14.00;100917.00;;;;4988476;27;113977;-69
2023/06/11 03:50:00;;;;;;;2.97;1.60;;;14.00;68.00;14.10;100921.00;;;;4987770;27;110303;-68
2023/06/11 03:52:26;;;;;;;1.60;1.50;;;14.00;67.90;14.10;100920.00;;;;4992842;27;92216;-68
2023/06/11 03:54:52;;;;;;;2.97;1.80;;;14.00;67.80;14.20;100911.00;;;;4967609;28;123251;-68
2023/06/11 03:57:18;;;;;;;2.00;1.60;;;14.10;67.80;14.20;100922.00;;;;4967970;28;122289;-68
2023/06/11 03:59:44;;;;;;;2.27;1.50;;;14.20;67.80;14.30;100920.00;;;;4969375;28;93709;-68
2023/06/11 04:02:10;;;;;;;2.67;1.67;;;14.20;67.80;14.40;100914.00;;;;4969570;28;92967;-67
2023/06/11 04:04:36;;;;;;;2.33;1.37;;;14.30;67.80;14.50;100919.00;;;;4966960;28;120957;-68
2023/06/11 04:07:02;;;;;;;2.03;1.20;;;14.30;67.90;14.50;100917.00;;;;4965388;28;93164;-68
2023/06/11 04:09:28;;;;;;;4.83;2.17;;;14.40;68.00;14.60;100932.00;;;;4965589;28;102833;-69
2023/06/11 04:11:54;;;;;;;3.00;1.50;;;14.50;67.90;14.70;100931.00;;;;4966637;28;93040;-68
2023/06/11 04:14:20;;;;;;;3.47;1.77;;;14.60;68.00;14.80;100928.00;;;;4966496;28;106693;-67
2023/06/11 04:16:45;;;;;;;1.73;1.63;;;14.70;68.00;14.90;100930.00;;;;4969787;28;93836;-68
2023/06/11 04:19:12;;;;;;;4.47;1.73;;;14.80;68.00;15.00;100931.00;;;;4967924;28;100370;-68
2023/06/11 04:21:38;;;;;;;1.90;1.40;;;14.90;67.90;15.10;100930.00;;;;4968537;28;92808;-66
2023/06/11 04:24:04;;;;;;;2.55;1.60;;;15.00;67.70;15.20;100933.00;;;;4949670;27;123534;-68
2023/06/11 04:26:31;;;;;;;1.20;1.10;;;15.00;67.60;15.20;100931.00;;;;4981070;28;94710;-69
2023/06/11 04:28:57;;;;;;;2.75;2.05;;;15.10;67.50;15.30;100932.00;;;;4988824;28;92957;-69
2023/06/11 04:34:08;;;;;;;2.72;1.50;;;15.30;67.20;15.50;100931.00;;;;4974337;28;93033;-70
2023/06/11 04:36:34;;;;;;;1.75;1.17;;;15.40;67.10;15.60;100929.00;;;;4981977;28;93154;-70
2023/06/11 04:39:01;;;;;;;1.35;1.25;;;15.40;66.80;15.80;100936.00;;;;4985245;28;101201;-69
2023/06/11 04:41:29;;;;;;;1.95;1.50;;;15.60;66.80;15.90;100938.00;;;;4984085;28;92427;-68
2023/06/11 04:43:55;;;;;;;1.52;1.33;;;15.80;66.70;16.00;100941.00;;;;4986089;28;93921;-68
2023/06/11 04:46:21;;;;;;;2.65;1.58;;;15.90;66.60;16.20;100935.00;;;;4984256;28;121014;-68
2023/06/11 04:48:50;;;;;;;4.68;2.03;;;16.00;66.40;16.30;100943.00;;;;4966262;27;94330;-68
2023/06/11 04:51:20;;;;;;;1.23;1.05;;;16.20;66.30;16.50;100930.00;;;;4988898;28;93091;-70
2023/06/11 04:53:46;;;;;;;2.15;1.60;;;16.30;66.10;16.60;100937.00;;;;4984293;28;94139;-69
2023/06/11 04:56:12;;;;;;;2.63;1.90;;;16.40;66.00;16.80;100935.00;;;;4985772;28;120511;-68
2023/06/11 04:58:38;;;;;;;3.13;1.88;;;16.60;65.80;16.90;100939.00;;;;4986687;28;110401;-68
2023/06/11 05:01:07;;;;;;;3.55;2.08;;;16.80;65.70;17.10;100932.00;;;;4985546;28;109557;-68
2023/06/11 05:03:37;;;;;;;1.85;1.25;;;16.90;65.30;17.20;100937.00;;;;4987682;28;94074;-68
2023/06/11 05:06:04;;;;;;;1.80;1.58;;;17.10;65.00;17.40;100938.00;;;;4981475;28;92866;-67
2023/06/11 05:08:30;;;;;;;3.00;1.63;;;17.20;64.50;17.50;100939.00;;;;4988113;28;93095;-67
2023/06/11 05:11:00;;;;;;;2.17;1.88;;;17.40;64.10;17.70;100939.00;;;;4984184;28;110219;-67
2023/06/11 05:13:26;;;;;;;1.90;1.40;;;17.50;63.70;17.80;100950.00;;;;4982873;28;96247;-68
2023/06/11 05:15:56;;;;;;;3.03;1.73;;;17.60;63.00;18.00;100944.00;;;;4986688;28;117394;-69
2023/06/11 05:18:25;;;;;;;1.40;1.30;;;17.80;62.60;18.10;100947.00;;;;4984724;28;93023;-68
2023/06/11 05:20:51;;;;;;;9.43;1.90;;;17.90;62.20;18.30;100946.00;;;;4977991;28;98603;-69
2023/06/11 05:23:18;;;;;;;1.95;1.17;;;18.10;61.50;18.40;100948.00;;;;4986151;28;122778;-68
2023/06/11 05:25:47;;;;;;;2.55;1.73;;;18.20;61.40;18.50;100941.00;;;;4985463;28;93294;-68
2023/06/11 05:28:15;;;;;;;1.80;1.20;;;18.30;61.20;18.70;100950.00;;;;4984213;28;93034;-69
2023/06/11 05:30:45;;;;;;;2.00;1.20;;;18.50;60.80;18.80;100945.00;;;;4987109;28;92518;-68
2023/06/11 05:33:11;;;;;;;1.92;1.13;;;18.60;60.70;19.00;100954.00;;;;4980643;28;93408;-68
2023/06/11 05:35:38;;;;;;;3.00;1.30;;;18.80;60.40;19.20;100955.00;;;;4981825;27;93479;-68
2023/06/11 05:38:06;;;;;;;1.80;1.38;;;18.90;59.90;19.30;100955.00;;;;4968868;28;94009;-69
2023/06/11 05:40:33;;;;;;;1.50;1.13;;;19.10;59.70;19.50;100954.00;;;;4982553;27;92875;-69
2023/06/11 05:42:59;;;;;;;2.13;1.48;;;19.20;59.50;19.60;100954.00;;;;4981618;27;93896;-68
2023/06/11 05:45:25;;;;;;;1.60;1.50;;;19.40;58.90;19.70;100948.00;;;;4965991;27;95259;-69
2023/06/11 05:47:51;;;;;;;1.90;1.48;;;19.50;58.60;19.80;100950.00;;;;4978870;27;109083;-69
2023/06/11 05:50:17;;;;;;;1.75;1.48;;;19.60;58.60;20.00;100957.00;;;;4981776;27;93162;-71
2023/06/11 05:52:43;;;;;;;1.58;1.45;;;19.80;58.40;20.10;100957.00;;;;4980905;27;122694;-67
2023/06/11 05:55:09;;;;;;;3.45;1.60;;;19.90;58.30;20.20;100958.00;;;;4982288;28;93060;-67
2023/06/11 05:57:35;;;;;;;3.30;1.30;;;20.00;57.40;20.40;100956.00;;;;4983000;27;110055;-69
2023/06/11 06:00:00;;;;;;;1.98;1.52;;;20.10;56.20;20.50;100968.00;;;;4980665;28;109716;-69
2023/06/11 06:02:26;;;;;;;5.45;1.80;;;20.20;55.30;20.50;100970.00;;;;4973196;28;122158;-67
2023/06/11 06:04:52;;;;;;;1.38;1.08;;;20.30;55.30;20.50;100965.00;;;;4963924;27;95769;-67
2023/06/11 06:07:18;;;;;;;1.70;1.48;;;20.30;55.30;20.60;100969.00;;;;4982506;27;93124;-67
2023/06/11 06:09:44;;;;;;;2.03;1.55;;;20.30;55.20;20.70;100967.00;;;;4982730;27;92959;-67
2023/06/11 06:12:10;;;;;;;1.73;0.68;;;20.40;55.00;20.80;100970.00;;;;4979127;28;94459;-68
2023/06/11 06:14:36;;;;;;;1.70;1.23;;;20.70;55.70;21.00;100972.00;;;;4985740;27;93731;-69
2023/06/11 06:17:02;;;;;;;3.10;1.63;;;20.80;54.70;21.10;100981.00;;;;4979565;27;92943;-69
2023/06/11 06:19:27;;;;;;;2.92;1.45;;;20.90;53.60;21.20;100977.00;;;;4960121;28;111939;-68
2023/06/11 06:21:53;;;;;;;4.25;1.98;;;21.00;53.80;21.40;100984.00;;;;4982791;27;122845;-68
2023/06/11 06:24:19;;;;;;;2.03;1.35;;;21.10;53.40;21.50;100985.00;;;;4978722;28;116724;-68
2023/06/11 06:26:45;;;;;;;1.83;1.73;;;21.20;52.90;21.50;100974.00;;;;4980007;27;111275;-68
2023/06/11 06:29:14;;;;;;;1.52;1.25;;;21.30;52.50;21.60;100986.00;;;;4982112;27;93140;-67
2023/06/11 06:31:43;;;;;;;3.00;1.85;;;21.40;52.50;21.60;100986.00;;;;4981674;27;93349;-68
2023/06/11 06:34:08;;;;;;;1.42;1.33;;;21.40;52.20;21.70;100990.00;;;;4985191;27;93947;-67
2023/06/11 06:36:38;;;;;;;5.13;1.80;;;21.50;52.10;21.80;100985.00;;;;4982676;27;108517;-69
2023/06/11 06:39:04;;;;;;;2.47;1.77;;;21.60;52.20;21.90;100987.00;;;;4978947;28;92888;-68
2023/06/11 06:41:30;;;;;;;2.58;1.33;;;21.70;52.30;22.10;100986.00;;;;4983630;27;93561;-67
2023/06/11 06:43:56;;;;;;;4.35;1.67;;;21.90;52.10;22.40;100984.00;;;;4984675;27;121649;-68
2023/06/11 06:46:22;;;;;;;4.47;1.58;;;22.10;52.10;22.60;100990.00;;;;4986160;28;109003;-70
2023/06/11 06:48:47;;;;;;;1.98;1.58;;;22.30;51.40;22.70;100989.00;;;;4985576;27;109199;-69
2023/06/11 06:51:13;;;;;;;2.25;1.40;;;22.50;51.40;23.00;100987.00;;;;4983196;27;111480;-67
2023/06/11 06:53:39;;;;;;;4.65;1.67;;;22.70;51.30;23.20;100993.00;;;;4980853;27;123308;-69
2023/06/11 06:56:05;;;;;;;1.67;1.23;;;22.90;51.00;23.40;100993.00;;;;4984918;27;93199;-68
2023/06/11 06:58:51;;;;;;;1.38;1.27;;;23.10;50.60;23.70;100985.00;;;;4985973;28;92815;-70
2023/06/11 07:01:17;;;;;;;2.30;1.42;;;23.40;50.20;23.80;100985.00;;;;4986538;27;121356;-69
2023/06/11 07:03:42;;;;;;;2.65;1.90;;;23.60;49.60;24.00;100991.00;;;;4984505;27;120875;-69
2023/06/11 07:06:08;;;;;;;2.08;1.60;;;23.70;49.30;24.20;100991.00;;;;4983267;27;110659;-71
2023/06/11 07:08:34;;;;;;;4.63;1.40;;;23.80;48.60;24.20;100993.00;;;;4984884;27;107593;-70
2023/06/11 07:11:00;;;;;;;7.97;2.03;;;23.90;48.60;24.30;100984.00;;;;4974618;27;93450;-70
2023/06/11 07:13:27;;;;;;;1.45;1.35;;;24.00;48.70;24.40;100996.00;;;;4963220;28;124820;-73
2023/06/11 07:15:52;;;;;;;2.83;1.67;;;24.10;48.60;24.60;100986.00;;;;4961159;28;94953;-73
2023/06/11 07:18:18;;;;;;;1.55;1.23;;;24.30;48.80;24.90;100991.00;;;;4960849;28;92913;-72
2023/06/11 07:20:44;;;;;;;2.15;1.80;;;24.50;48.50;25.10;100985.00;;;;4963992;28;93387;-72
2023/06/11 07:23:10;;;;;;;4.38;2.00;;;24.80;47.90;25.30;100989.00;;;;4967213;28;92799;-71
2023/06/11 07:25:37;;;;;;;2.60;1.40;;;24.90;48.00;25.50;100993.00;;;;4965708;28;92966;-70
2023/06/11 07:28:05;;;;;;;2.33;1.50;;;25.20;48.00;25.70;100997.00;;;;4963383;28;92798;-70
2023/06/11 07:30:32;;;;;;;5.63;2.28;;;25.40;47.50;25.90;100995.00;;;;4962837;28;93513;-71
2023/06/11 07:32:59;;;;;;;3.70;1.55;;;25.60;47.20;26.00;101000.00;;;;4965005;28;93808;-72
2023/06/11 07:35:26;;;;;;;3.00;1.70;;;25.70;47.00;26.10;100999.00;;;;4913657;28;92990;-71
2023/06/11 07:37:52;;;;;;;2.30;1.70;;;25.80;46.80;26.30;100997.00;;;;4960466;27;93311;-71
2023/06/11 07:40:19;;;;;;;2.42;1.33;;;26.00;46.90;26.40;100998.00;;;;4982194;27;114548;-71
2023/06/11 07:42:46;;;;;;;1.75;1.65;;;26.10;46.80;26.60;100990.00;;;;4983267;27;94320;-71
2023/06/11 07:45:13;;;;;;;1.45;1.30;;;26.30;46.20;26.70;101004.00;;;;4984102;27;94000;-71
2023/06/11 07:47:40;;;;;;;2.50;1.40;;;26.40;46.20;26.70;100993.00;;;;4986641;27;93245;-71
2023/06/11 07:50:08;;;;;;;2.58;1.63;;;26.40;46.20;26.90;100997.00;;;;4954806;27;93921;-72
2023/06/11 07:52:34;;;;;;;2.20;1.45;;;26.50;46.50;27.10;100998.00;;;;4948696;28;109616;-71
2023/06/11 07:55:00;;;;;;;3.78;2.58;;;26.70;46.10;27.10;100991.00;;;;4964417;28;111118;-73
2023/06/11 07:57:25;;;;;;;1.70;1.55;;;26.90;46.10;27.20;101000.00;;;;4950178;28;108549;-71
2023/06/11 07:59:52;;;;;;;3.17;2.03;;;27.00;46.10;27.40;100997.00;;;;4961928;28;121908;-71
2023/06/11 08:02:18;;;;;;;9.68;1.25;;;27.10;45.90;27.40;100995.00;;;;4943268;28;94117;-71
2023/06/11 08:04:44;;;;;;;2.58;2.08;;;27.10;46.10;27.50;100998.00;;;;4957946;28;110538;-71
2023/06/11 08:07:10;;;;;;;1.95;1.30;;;27.20;46.10;27.60;100996.00;;;;4965748;28;93394;-71
2023/06/11 08:09:37;;;;;;;3.58;1.95;;;27.30;46.10;27.60;100993.00;;;;4962464;28;92864;-71
2023/06/11 08:12:08;;;;;;;3.28;1.80;;;27.30;46.00;27.70;100985.00;;;;4947650;28;122208;-72
2023/06/11 08:14:35;;;;;;;2.58;2.38;;;27.40;46.30;27.80;100995.00;;;;4962844;28;93030;-72
2023/06/11 08:17:01;;;;;;;2.28;2.08;;;27.50;46.30;27.90;100991.00;;;;4963674;28;92794;-70
2023/06/11 08:19:27;;;;;;;2.72;2.10;;;27.60;46.00;27.90;100988.00;;;;4966017;28;111924;-73
2023/06/11 08:21:55;;;;;;;2.83;2.17;;;27.60;46.50;27.80;100993.00;;;;4948601;28;93863;-73
2023/06/11 08:24:22;;;;;;;3.03;1.83;;;27.60;46.10;27.80;100984.00;;;;4964792;28;92881;-72
2023/06/11 08:26:48;;;;;;;1.75;1.65;;;27.50;46.50;27.90;100982.00;;;;4962045;28;93131;-72
2023/06/11 08:29:15;;;;;;;4.30;1.80;;;27.60;46.50;28.10;100995.00;;;;4952364;28;93949;-73
2023/06/11 08:31:41;;;;;;;2.72;1.73;;;27.70;46.40;28.20;100982.00;;;;4964924;28;93747;-72
2023/06/11 08:34:06;;;;;;;3.03;1.83;;;27.90;46.40;28.40;100981.00;;;;4962262;28;104262;-71
2023/06/11 08:36:33;;;;;;;2.10;1.60;;;28.00;45.40;28.40;100988.00;;;;4951452;28;99603;-73
2023/06/11 08:38:59;;;;;;;2.55;1.67;;;28.10;45.40;28.40;100981.00;;;;4951113;28;95125;-72
2023/06/11 08:41:26;;;;;;;1.90;1.45;;;28.10;45.40;28.50;100987.00;;;;4961767;28;107882;-71
2023/06/11 08:43:52;;;;;;;2.42;2.22;;;28.10;45.60;28.60;100981.00;;;;4942772;28;93953;-73
2023/06/11 08:46:22;;;;;;;2.35;1.90;;;28.20;45.00;28.70;100981.00;;;;4962226;28;109051;-71
2023/06/11 08:48:59;;;;;;;4.28;2.20;;;28.30;45.20;28.80;100982.00;;;;4949210;28;94833;-74
2023/06/11 08:51:28;;;;;;;2.92;2.42;;;28.50;45.70;28.90;100980.00;;;;4947795;28;93192;-75
2023/06/11 08:53:54;;;;;;;2.17;1.98;;;28.50;44.90;29.00;100979.00;;;;4945840;28;94413;-72
2023/06/11 08:56:19;;;;;;;4.80;2.05;;;28.60;45.20;29.20;100979.00;;;;4963493;28;109543;-72
2023/06/11 08:58:47;;;;;;;2.00;1.65;;;28.80;45.00;29.30;100975.00;;;;4967712;28;122112;-71
2023/06/11 09:01:13;;;;;;;2.35;2.08;;;28.90;44.60;29.50;100977.00;;;;4965054;28;121697;-73
2023/06/11 09:03:38;;;;;;;4.47;1.80;;;29.10;44.50;29.70;100982.00;;;;4963983;28;108093;-72
2023/06/11 09:06:05;;;;;;;2.70;1.60;;;29.20;44.30;29.70;100978.00;;;;4962014;28;109087;-73
2023/06/11 09:08:31;;;;;;;2.88;2.30;;;29.40;44.10;29.70;100972.00;;;;4962884;28;94014;-73
2023/06/11 09:10:57;;;;;;;2.08;1.88;;;29.40;43.80;29.90;100968.00;;;;4964602;28;112475;-72
2023/06/11 09:13:27;;;;;;;2.92;1.95;;;29.50;43.30;29.90;100973.00;;;;4944434;28;93203;-72
2023/06/11 09:15:57;;;;;;;2.35;2.15;;;29.50;43.60;29.80;100970.00;;;;4962101;28;93050;-72
2023/06/11 09:18:27;;;;;;;3.53;2.33;;;29.50;43.60;29.80;100961.00;;;;4960009;28;95451;-72
2023/06/11 09:20:55;;;;;;;3.22;2.08;;;29.50;43.00;29.80;100967.00;;;;4957506;28;94322;-74
2023/06/11 09:23:32;;;;;;;2.70;1.88;;;29.40;43.00;29.90;100966.00;;;;4965504;28;92946;-72
2023/06/11 09:26:00;;;;;;;4.22;1.98;;;29.50;43.10;29.90;100960.00;;;;4948957;28;93090;-74
2023/06/11 09:28:30;;;;;;;2.25;2.03;;;29.50;43.10;29.80;100977.00;;;;4959488;28;93912;-69
2023/06/11 09:30:57;;;;;;;2.97;2.03;;;29.50;42.60;29.60;100969.00;;;;4960958;28;93465;-73
2023/06/11 09:33:23;;;;;;;2.75;2.08;;;29.30;42.90;29.40;100961.00;;;;4982664;27;93063;-71
2023/06/11 09:35:50;;;;;;;3.40;2.00;;;29.20;43.00;29.40;100968.00;;;;4980397;27;100057;-71
2023/06/11 09:38:18;;;;;;;16.88;2.03;;;29.10;43.10;29.30;100975.00;;;;4967445;27;93155;-74
2023/06/11 09:40:53;;;;;;;6.88;1.95;;;29.00;43.40;29.10;100971.00;;;;4982774;27;93009;-74
2023/06/11 09:43:21;;;;;;;4.00;2.42;;;28.80;43.20;28.70;100973.00;;;;4981203;27;94044;-73
2023/06/11 09:45:52;;;;;;;2.17;1.98;;;28.60;43.10;28.50;100971.00;;;;4982418;27;95280;-73
2023/06/11 09:48:23;;;;;;;1.90;1.65;;;28.30;43.30;28.30;100972.00;;;;4984368;27;94575;-74
2023/06/11 09:50:50;;;;;;;3.10;2.20;;;28.00;43.40;28.00;100976.00;;;;4983800;28;93236;-73
2023/06/11 09:53:18;;;;;;;2.75;1.85;;;27.80;43.00;27.80;100977.00;;;;4981332;27;92827;-72
2023/06/11 09:55:50;;;;;;;3.25;2.22;;;27.60;42.90;27.70;100972.00;;;;4982647;27;92975;-71
2023/06/11 09:58:18;;;;;;;3.00;2.30;;;27.40;43.30;27.60;100970.00;;;;4982715;27;93119;-71
2023/06/11 10:00:48;;;;;;;6.35;2.10;;;27.30;43.40;27.50;100980.00;;;;4966581;27;94025;-73
2023/06/11 10:03:13;;;;;;;3.35;2.58;;;27.20;42.00;27.60;100969.00;;;;4983565;27;98804;-72
2023/06/11 10:05:39;;;;;;;2.42;2.00;;;27.20;40.90;27.80;100972.00;;;;4982588;27;106853;-72
2023/06/11 10:08:15;;;;;;;3.72;2.50;;;27.30;41.80;28.20;100969.00;;;;4978875;27;113311;-72
2023/06/11 10:10:45;;;;;;;1.75;1.65;;;27.60;42.00;28.60;100961.00;;;;4982725;27;93034;-70
2023/06/11 10:13:11;;;;;;;2.45;1.50;;;28.00;40.00;29.10;100980.00;;;;4971350;28;93059;-71
2023/06/11 10:15:38;;;;;;;2.33;1.42;;;28.40;40.10;29.40;100978.00;;;;4981238;27;108349;-71
2023/06/11 10:18:14;;;;;;;7.60;2.33;;;28.80;39.60;29.50;100973.00;;;;4961220;28;123097;-72
2023/06/11 10:20:57;;;;;;;3.00;2.05;;;28.90;39.20;29.40;100971.00;;;;4973228;27;93635;-72
2023/06/11 10:23:38;;;;;;;2.92;1.70;;;28.90;39.30;29.40;100980.00;;;;4969945;27;93258;-71
2023/06/11 10:26:04;;;;;;;2.80;1.98;;;28.90;39.80;29.50;100968.00;;;;4970694;28;92406;-73
2023/06/11 10:28:48;;;;;;;2.17;1.88;;;28.90;39.00;29.50;100963.00;;;;4984636;27;93408;-72
2023/06/11 10:31:45;;;;;;;3.88;1.77;;;29.00;39.40;29.30;100970.00;;;;4954475;28;94237;-72
2023/06/11 10:34:14;;;;;;;2.08;1.70;;;28.90;39.30;29.20;100980.00;;;;4986577;27;93807;-72
2023/06/11 10:36:41;;;;;;;4.57;2.20;;;28.80;39.80;29.10;100986.00;;;;4958929;27;95401;-73
2023/06/11 10:39:09;;;;;;;2.58;1.55;;;28.70;40.00;28.90;100984.00;;;;4982866;27;93955;-75
2023/06/11 10:41:42;;;;;;;1.40;1.10;;;28.60;39.90;28.80;100980.00;;;;4988605;27;92988;-70
2023/06/11 10:44:10;;;;;;;2.35;1.67;;;28.40;40.10;28.90;100977.00;;;;4985796;28;93207;-74
2023/06/11 10:46:51;;;;;;;2.38;1.92;;;28.40;40.50;29.30;100968.00;;;;4973308;28;92887;-73
2023/06/11 10:49:20;;;;;;;2.50;2.20;;;28.70;41.00;29.80;100968.00;;;;4971004;28;113499;-72